createdAt,value
2022-12-26T00:01:48.889Z,11.13
2022-12-26T00:04:51.388Z,11.25
2022-12-26T00:07:06.775Z,11.09
2022-12-26T00:09:36.986Z,11.14
2022-12-26T00:12:06.461Z,11.06
2022-12-26T00:14:36.367Z,11.00
2022-12-26T00:17:03.321Z,11.09
2022-12-26T00:19:30.351Z,11.14
2022-12-26T00:21:59.779Z,11.28
2022-12-26T00:24:26.829Z,11.10
2022-12-26T00:26:53.777Z,11.18
2022-12-26T00:29:20.678Z,11.22
2022-12-26T00:31:52.376Z,11.31
2022-12-26T00:34:21.463Z,11.36
2022-12-26T00:36:48.528Z,11.37
2022-12-26T00:39:18.003Z,11.32
2022-12-26T00:41:44.892Z,11.42
2022-12-26T00:44:16.215Z,11.45
2022-12-26T00:46:46.390Z,11.43
2022-12-26T00:49:15.802Z,11.44
2022-12-26T00:51:42.663Z,11.40
2022-12-26T00:54:14.122Z,11.49
2022-12-26T00:56:41.035Z,11.43
2022-12-26T00:59:08.062Z,11.50
2022-12-26T01:01:37.036Z,11.27
2022-12-26T01:04:06.671Z,11.32
2022-12-26T01:06:36.118Z,11.29
2022-12-26T01:09:03.197Z,11.16
2022-12-26T01:11:41.966Z,11.08
2022-12-26T01:14:18.551Z,11.12
2022-12-26T01:16:47.210Z,11.11
2022-12-26T01:19:16.953Z,11.26
2022-12-26T01:21:46.416Z,11.45
2022-12-26T01:24:14.083Z,11.53
2022-12-26T01:26:41.139Z,11.48
2022-12-26T01:29:09.238Z,11.60
2022-12-26T01:31:37.947Z,11.54
2022-12-26T01:34:04.789Z,11.51
2022-12-26T01:36:31.676Z,11.51
2022-12-26T01:38:58.816Z,11.63
2022-12-26T01:41:26.695Z,11.49
2022-12-26T01:44:06.412Z,11.55
2022-12-26T01:46:44.960Z,11.54
2022-12-26T01:49:31.420Z,11.55
2022-12-26T01:52:04.332Z,11.61
2022-12-26T01:54:42.768Z,11.45
2022-12-26T01:57:21.167Z,11.51
2022-12-26T01:59:52.375Z,11.53
2022-12-26T02:02:24.142Z,11.68
2022-12-26T02:05:11.005Z,11.70
2022-12-26T02:07:42.597Z,11.57
2022-12-26T02:10:18.009Z,11.66
2022-12-26T02:12:45.407Z,11.39
2022-12-26T02:15:18.858Z,11.45
2022-12-26T02:17:47.889Z,11.62
2022-12-26T02:20:33.144Z,11.80
2022-12-26T02:23:40.315Z,11.73
2022-12-26T02:26:35.239Z,11.64
2022-12-26T02:29:25.429Z,11.70
2022-12-26T02:32:19.742Z,11.79
2022-12-26T02:35:15.206Z,11.79
2022-12-26T02:38:01.419Z,11.81
2022-12-26T02:41:09.161Z,11.85
2022-12-26T02:44:20.297Z,11.74
2022-12-26T02:47:05.248Z,11.92
2022-12-26T02:50:18.584Z,11.98
2022-12-26T02:53:09.777Z,11.88
2022-12-26T02:56:02.755Z,11.65
2022-12-26T02:58:58.972Z,11.69
2022-12-26T03:02:05.985Z,11.59
2022-12-26T03:04:57.191Z,11.63
2022-12-26T03:07:52.236Z,11.41
2022-12-26T03:10:43.185Z,11.19
2022-12-26T03:13:25.636Z,11.21
2022-12-26T03:16:30.588Z,11.40
2022-12-26T03:19:04.132Z,11.43
2022-12-26T03:21:38.894Z,11.53
2022-12-26T03:24:09.179Z,11.36
2022-12-26T03:26:43.761Z,10.98
2022-12-26T03:29:36.667Z,11.26
2022-12-26T03:32:08.851Z,11.47
2022-12-26T03:34:42.721Z,11.28
2022-12-26T03:37:47.913Z,11.19
2022-12-26T03:41:09.623Z,11.30
2022-12-26T03:44:13.524Z,11.53
2022-12-26T03:47:43.040Z,11.65
2022-12-26T03:51:02.812Z,11.59
2022-12-26T03:54:09.253Z,11.62
2022-12-26T03:57:02.039Z,11.40
2022-12-26T04:00:16.843Z,11.55
2022-12-26T04:03:05.121Z,11.49
2022-12-26T04:05:54.595Z,11.57
2022-12-26T04:08:46.609Z,11.56
2022-12-26T04:11:35.834Z,11.71
2022-12-26T04:15:15.825Z,11.87
2022-12-26T04:18:31.572Z,11.93
2022-12-26T04:22:09.544Z,11.63
2022-12-26T04:25:06.866Z,11.54
2022-12-26T04:27:52.637Z,11.25
2022-12-26T04:30:38.754Z,11.30
2022-12-26T04:33:49.857Z,11.23
2022-12-26T04:36:48.685Z,11.24
2022-12-26T04:39:43.904Z,10.98
2022-12-26T04:42:33.189Z,11.08
2022-12-26T04:45:01.149Z,11.28
2022-12-26T04:47:31.980Z,11.34
2022-12-26T04:50:15.594Z,11.40
2022-12-26T04:52:58.592Z,11.37
2022-12-26T04:55:32.147Z,11.42
2022-12-26T04:58:00.329Z,11.30
2022-12-26T05:00:29.036Z,11.08
2022-12-26T05:03:19.119Z,11.39
2022-12-26T05:06:09.155Z,11.27
2022-12-26T05:09:01.276Z,11.61
2022-12-26T05:11:30.136Z,11.30
2022-12-26T05:14:01.114Z,11.24
2022-12-26T05:16:49.386Z,11.34
2022-12-26T05:19:36.580Z,11.19
2022-12-26T05:22:23.521Z,11.24
2022-12-26T05:25:09.778Z,11.52
2022-12-26T05:28:04.277Z,11.74
2022-12-26T05:30:34.276Z,11.96
2022-12-26T05:33:19.536Z,12.01
2022-12-26T05:35:46.446Z,11.70
2022-12-26T05:38:13.295Z,11.81
2022-12-26T05:40:40.196Z,11.60
2022-12-26T05:43:07.129Z,11.56
2022-12-26T05:45:33.992Z,11.45
2022-12-26T05:48:04.085Z,11.61
2022-12-26T05:50:33.207Z,11.75
2022-12-26T05:53:04.083Z,11.79
2022-12-26T05:55:30.921Z,11.77
2022-12-26T05:58:00.550Z,11.64
2022-12-26T06:00:31.074Z,11.71
2022-12-26T06:03:00.055Z,11.43
2022-12-26T06:05:27.058Z,11.42
2022-12-26T06:07:54.027Z,11.43
2022-12-26T06:10:26.260Z,11.31
2022-12-26T06:12:53.380Z,11.37
2022-12-26T06:15:20.316Z,11.46
2022-12-26T06:17:47.344Z,11.61
2022-12-26T06:20:16.839Z,11.55
2022-12-26T06:22:45.799Z,11.70
2022-12-26T06:25:12.754Z,11.84
2022-12-26T06:27:43.130Z,11.54
2022-12-26T06:30:10.651Z,11.63
2022-12-26T06:32:39.953Z,11.63
2022-12-26T06:35:07.158Z,11.52
2022-12-26T06:37:34.685Z,11.39
2022-12-26T06:40:01.508Z,11.49
2022-12-26T06:42:29.725Z,11.42
2022-12-26T06:45:01.353Z,11.23
2022-12-26T06:47:31.482Z,11.30
2022-12-26T06:50:00.451Z,11.35
2022-12-26T06:52:27.532Z,11.21
2022-12-26T06:54:54.351Z,11.05
2022-12-26T06:57:23.421Z,11.14
2022-12-26T06:59:52.764Z,11.21
2022-12-26T07:02:19.762Z,11.21
2022-12-26T07:04:46.656Z,11.20
2022-12-26T07:07:13.710Z,11.49
2022-12-26T07:09:43.066Z,11.37
2022-12-26T07:12:09.908Z,11.30
2022-12-26T07:14:37.427Z,11.27
2022-12-26T07:17:04.361Z,11.32
2022-12-26T07:19:31.282Z,11.29
2022-12-26T07:21:58.122Z,11.54
2022-12-26T07:24:25.129Z,11.48
2022-12-26T07:26:54.243Z,11.46
2022-12-26T07:29:23.395Z,11.23
2022-12-26T07:31:52.842Z,11.54
2022-12-26T07:34:26.393Z,11.43
2022-12-26T07:36:58.499Z,11.38
2022-12-26T07:39:28.355Z,11.17
2022-12-26T07:41:57.790Z,11.23
2022-12-26T07:44:26.471Z,11.50
2022-12-26T07:46:56.711Z,11.73
2022-12-26T07:49:24.444Z,11.76
2022-12-26T07:51:53.900Z,11.73
2022-12-26T07:54:23.383Z,11.64
2022-12-26T07:56:50.349Z,11.67
2022-12-26T07:59:20.389Z,11.63
2022-12-26T08:01:47.479Z,11.61
2022-12-26T08:04:14.974Z,11.54
2022-12-26T08:06:41.988Z,11.42
2022-12-26T08:09:16.082Z,11.25
2022-12-26T08:11:44.347Z,11.58
2022-12-26T08:14:16.920Z,11.35
2022-12-26T08:16:49.730Z,11.45
2022-12-26T08:19:20.073Z,11.42
2022-12-26T08:21:51.648Z,11.32
2022-12-26T08:24:18.572Z,11.39
2022-12-26T08:26:45.472Z,11.49
2022-12-26T08:29:12.347Z,11.37
2022-12-26T08:31:39.274Z,11.32
2022-12-26T08:34:06.362Z,11.27
2022-12-26T08:36:36.283Z,11.35
2022-12-26T08:39:05.827Z,11.57
2022-12-26T08:41:32.740Z,11.58
2022-12-26T08:44:26.650Z,11.43
2022-12-26T08:46:48.891Z,11.53
2022-12-26T08:49:18.382Z,11.36
2022-12-26T08:51:45.281Z,11.36
2022-12-26T08:54:12.195Z,11.31
2022-12-26T08:56:41.330Z,11.55
2022-12-26T08:59:12.822Z,11.44
2022-12-26T09:01:40.540Z,11.58
2022-12-26T09:04:09.948Z,11.55
2022-12-26T09:06:38.982Z,11.46
2022-12-26T09:09:08.638Z,11.45
2022-12-26T09:11:38.020Z,11.55
2022-12-26T09:14:05.759Z,11.50
2022-12-26T09:16:49.408Z,11.39
2022-12-26T09:19:17.869Z,11.42
2022-12-26T09:21:46.227Z,11.64
2022-12-26T09:24:16.433Z,11.69
2022-12-26T09:26:47.173Z,11.56
2022-12-26T09:29:14.739Z,11.67
2022-12-26T09:31:42.254Z,11.46
2022-12-26T09:34:09.298Z,11.44
2022-12-26T09:36:38.229Z,11.39
2022-12-26T09:39:06.464Z,11.49
2022-12-26T09:42:17.703Z,11.52
2022-12-26T09:45:01.502Z,11.67
2022-12-26T09:47:50.775Z,11.37
2022-12-26T09:50:25.732Z,11.29
2022-12-26T09:53:04.313Z,11.57
2022-12-26T09:56:06.089Z,11.56
2022-12-26T09:58:58.034Z,11.37
2022-12-26T10:01:33.253Z,11.62
2022-12-26T10:04:02.275Z,11.37
2022-12-26T10:06:34.500Z,11.43
2022-12-26T10:09:42.718Z,11.53
2022-12-26T10:12:23.341Z,11.85
2022-12-26T10:15:43.297Z,11.80
2022-12-26T10:18:34.207Z,11.73
2022-12-26T10:21:36.153Z,11.84
2022-12-26T10:24:20.596Z,12.06
2022-12-26T10:27:07.545Z,12.13
2022-12-26T10:29:43.072Z,12.17
2022-12-26T10:32:28.453Z,11.85
2022-12-26T10:34:55.953Z,12.01
2022-12-26T10:37:35.303Z,12.28
2022-12-26T10:40:28.284Z,12.21
2022-12-26T10:43:15.892Z,12.04
2022-12-26T10:46:05.305Z,12.00
2022-12-26T10:48:34.827Z,11.84
2022-12-26T10:51:01.660Z,11.90
2022-12-26T10:53:28.538Z,11.68
2022-12-26T10:55:58.038Z,11.91
2022-12-26T10:58:33.159Z,12.07
2022-12-26T11:01:29.984Z,11.94
2022-12-26T11:04:05.201Z,11.82
2022-12-26T11:06:37.819Z,11.88
2022-12-26T11:09:05.633Z,11.89
2022-12-26T11:11:46.541Z,11.71
2022-12-26T11:14:34.604Z,11.86
2022-12-26T11:17:24.055Z,12.02
2022-12-26T11:20:29.336Z,11.98
2022-12-26T11:23:26.631Z,12.15
2022-12-26T11:25:57.547Z,12.13
2022-12-26T11:28:35.902Z,12.80
2022-12-26T11:31:07.653Z,13.02
2022-12-26T11:33:45.456Z,13.07
2022-12-26T11:36:26.523Z,12.91
2022-12-26T11:38:56.980Z,12.99
2022-12-26T11:41:32.542Z,12.79
2022-12-26T11:44:02.428Z,12.55
2022-12-26T11:47:13.010Z,12.45
2022-12-26T11:50:24.578Z,12.04
2022-12-26T11:52:55.634Z,12.28
2022-12-26T11:55:37.323Z,12.03
2022-12-26T11:58:10.006Z,12.23
2022-12-26T12:01:05.904Z,12.11
2022-12-26T12:03:49.285Z,12.16
2022-12-26T12:06:41.406Z,12.10
2022-12-26T12:09:30.903Z,12.23
2022-12-26T12:12:48.317Z,12.25
2022-12-26T12:15:38.816Z,12.32
2022-12-26T12:18:33.399Z,12.01
2022-12-26T12:22:04.902Z,11.99
2022-12-26T12:25:05.545Z,11.91
2022-12-26T12:27:54.945Z,12.07
2022-12-26T12:30:35.643Z,12.05
2022-12-26T12:33:29.844Z,12.14
2022-12-26T12:36:14.753Z,12.13
2022-12-26T12:39:20.620Z,11.96
2022-12-26T12:42:11.027Z,11.93
2022-12-26T12:44:56.924Z,11.73
2022-12-26T12:47:37.811Z,11.70
2022-12-26T12:50:13.627Z,11.46
2022-12-26T12:53:04.116Z,11.73
2022-12-26T12:56:04.982Z,11.78
2022-12-26T12:58:57.060Z,11.98
2022-12-26T13:01:43.234Z,12.01
2022-12-26T13:04:27.541Z,12.06
2022-12-26T13:07:05.901Z,11.84
2022-12-26T13:09:52.619Z,11.64
2022-12-26T13:12:49.077Z,12.17
2022-12-26T13:15:33.929Z,12.59
2022-12-26T13:18:18.688Z,12.41
2022-12-26T13:20:55.366Z,12.34
2022-12-26T13:24:14.830Z,12.37
2022-12-26T13:26:55.588Z,12.25
2022-12-26T13:29:31.781Z,12.22
2022-12-26T13:32:00.802Z,12.45
2022-12-26T13:34:31.199Z,12.22
2022-12-26T13:37:00.856Z,12.01
2022-12-26T13:39:30.739Z,11.99
2022-12-26T13:42:28.379Z,12.07
2022-12-26T13:44:55.749Z,11.84
2022-12-26T13:47:38.976Z,11.92
2022-12-26T13:50:55.699Z,11.90
2022-12-26T13:53:26.567Z,12.02
2022-12-26T13:56:02.615Z,12.19
2022-12-26T13:58:32.833Z,12.01
2022-12-26T14:01:14.576Z,11.95
2022-12-26T14:04:09.176Z,12.12
2022-12-26T14:06:57.455Z,13.11
2022-12-26T14:10:11.500Z,13.61
2022-12-26T14:13:11.730Z,13.48
2022-12-26T14:15:52.191Z,13.24
2022-12-26T14:18:47.431Z,13.12
2022-12-26T14:21:47.289Z,12.18
2022-12-26T14:24:31.829Z,12.08
2022-12-26T14:27:45.043Z,12.00
2022-12-26T14:30:58.974Z,11.59
2022-12-26T14:34:10.662Z,11.52
2022-12-26T14:37:11.375Z,11.58
2022-12-26T14:40:08.791Z,11.47
2022-12-26T14:43:13.889Z,11.10
2022-12-26T14:45:51.771Z,11.12
2022-12-26T14:48:18.863Z,10.81
2022-12-26T14:50:48.331Z,10.77
2022-12-26T14:53:32.814Z,10.41
2022-12-26T14:56:33.677Z,10.47
2022-12-26T14:59:32.556Z,10.37
2022-12-26T15:02:22.251Z,10.33
2022-12-26T15:05:20.246Z,10.32
2022-12-26T15:08:38.309Z,10.34
2022-12-26T15:11:20.254Z,10.19
2022-12-26T15:14:20.970Z,10.40
2022-12-26T15:17:16.957Z,10.34
2022-12-26T15:20:51.145Z,10.48
2022-12-26T15:23:50.654Z,9.97
2022-12-26T15:26:39.532Z,10.14
2022-12-26T15:29:28.201Z,9.92
2022-12-26T15:32:19.364Z,10.16
2022-12-26T15:34:52.716Z,9.80
2022-12-26T15:37:44.151Z,9.70
2022-12-26T15:40:36.946Z,9.67
2022-12-26T15:43:36.185Z,9.68
2022-12-26T15:47:03.780Z,9.86
2022-12-26T15:50:23.856Z,9.67
2022-12-26T15:53:08.178Z,9.61
2022-12-26T15:55:49.909Z,9.59
2022-12-26T15:59:07.437Z,9.68
2022-12-26T16:01:45.669Z,9.75
2022-12-26T16:04:33.241Z,9.44
2022-12-26T16:07:27.176Z,9.40
2022-12-26T16:09:56.357Z,9.32
2022-12-26T16:12:35.743Z,9.35
2022-12-26T16:15:17.830Z,9.13
2022-12-26T16:17:48.860Z,9.15
2022-12-26T16:20:43.367Z,9.14
2022-12-26T16:23:19.547Z,9.14
2022-12-26T16:25:55.409Z,9.12
2022-12-26T16:28:39.984Z,8.89
2022-12-26T16:31:08.080Z,8.99
2022-12-26T16:33:41.158Z,8.76
2022-12-26T16:36:11.080Z,8.79
2022-12-26T16:38:38.421Z,8.90
2022-12-26T16:41:26.681Z,9.00
2022-12-26T16:43:58.192Z,8.93
2022-12-26T16:46:30.908Z,8.67
2022-12-26T16:49:03.201Z,8.71
2022-12-26T16:51:48.870Z,8.58
2022-12-26T16:54:24.325Z,8.51
2022-12-26T16:56:56.108Z,8.58
2022-12-26T16:59:38.835Z,8.56
2022-12-26T17:02:06.412Z,8.41
2022-12-26T17:04:33.517Z,8.45
2022-12-26T17:07:07.740Z,8.43
2022-12-26T17:09:49.606Z,8.53
2022-12-26T17:12:24.010Z,8.62
2022-12-26T17:14:52.515Z,8.38
2022-12-26T17:17:22.441Z,8.32
2022-12-26T17:20:09.612Z,8.28
2022-12-26T17:22:37.800Z,8.17
2022-12-26T17:25:35.053Z,8.05
2022-12-26T17:28:12.240Z,8.02
2022-12-26T17:30:44.072Z,8.07
2022-12-26T17:33:22.123Z,8.27
2022-12-26T17:38:52.070Z,8.34
2022-12-26T17:41:19.400Z,8.36
2022-12-26T17:43:47.368Z,8.35
2022-12-26T17:46:17.447Z,8.37
2022-12-26T17:48:47.211Z,8.16
2022-12-26T17:51:18.732Z,8.20
2022-12-26T17:53:51.331Z,7.88
2022-12-26T17:56:27.200Z,7.88
2022-12-26T17:58:55.509Z,7.94
2022-12-26T18:01:22.724Z,7.91
2022-12-26T18:03:52.033Z,8.03
2022-12-26T18:06:19.880Z,8.17
2022-12-26T18:08:46.751Z,8.12
2022-12-26T18:11:14.815Z,7.99
2022-12-26T18:13:43.110Z,7.85
2022-12-26T18:16:17.197Z,7.76
2022-12-26T18:18:46.082Z,7.91
2022-12-26T18:21:15.507Z,8.00
2022-12-26T18:23:42.705Z,8.10
2022-12-26T18:26:25.585Z,7.90
2022-12-26T18:28:52.837Z,8.09
2022-12-26T18:31:22.457Z,8.03
2022-12-26T18:33:53.945Z,7.99
2022-12-26T18:36:32.230Z,7.84
2022-12-26T18:38:59.792Z,7.74
2022-12-26T18:41:27.085Z,7.74
2022-12-26T18:43:54.279Z,7.74
2022-12-26T18:46:26.740Z,7.44
2022-12-26T18:48:56.597Z,7.36
2022-12-26T18:51:27.978Z,7.50
2022-12-26T18:53:55.088Z,7.36
2022-12-26T18:56:23.482Z,7.27
2022-12-26T18:58:57.369Z,7.27
2022-12-26T19:01:27.196Z,7.25
2022-12-26T19:03:55.146Z,7.23
2022-12-26T19:06:27.825Z,7.18
2022-12-26T19:08:55.153Z,7.18
2022-12-26T19:11:27.725Z,7.23
2022-12-26T19:13:57.258Z,7.23
2022-12-26T19:16:24.200Z,7.11
2022-12-26T19:18:53.627Z,6.97
2022-12-26T19:21:23.956Z,7.24
2022-12-26T19:23:52.895Z,7.11
2022-12-26T19:26:20.486Z,6.94
2022-12-26T19:28:58.985Z,7.08
2022-12-26T19:31:27.979Z,7.16
2022-12-26T19:34:01.931Z,6.96
2022-12-26T19:36:28.945Z,6.86
2022-12-26T19:38:55.873Z,6.87
2022-12-26T19:41:22.772Z,7.04
2022-12-26T19:43:57.068Z,6.65
2022-12-26T19:46:26.997Z,6.86
2022-12-26T19:48:54.687Z,6.93
2022-12-26T19:51:22.630Z,6.78
2022-12-26T19:53:49.956Z,6.80
2022-12-26T19:56:21.840Z,6.86
2022-12-26T19:58:55.956Z,6.79
2022-12-26T20:01:30.304Z,6.63
2022-12-26T20:04:04.266Z,6.57
2022-12-26T20:06:37.756Z,6.68
2022-12-26T20:09:13.146Z,6.78
2022-12-26T20:11:45.910Z,6.75
2022-12-26T20:14:23.023Z,6.83
2022-12-26T20:17:07.135Z,6.97
2022-12-26T20:19:37.478Z,6.92
2022-12-26T20:22:06.024Z,6.70
2022-12-26T20:24:36.960Z,6.72
2022-12-26T20:27:04.821Z,6.82
2022-12-26T20:29:37.824Z,6.88
2022-12-26T20:32:04.899Z,6.66
2022-12-26T20:34:31.805Z,6.66
2022-12-26T20:36:58.860Z,6.69
2022-12-26T20:39:25.769Z,6.69
2022-12-26T20:41:55.343Z,6.70
2022-12-26T20:44:25.337Z,6.76
2022-12-26T20:46:55.157Z,6.56
2022-12-26T20:49:22.133Z,6.54
2022-12-26T20:51:51.373Z,6.50
2022-12-26T20:54:18.502Z,6.51
2022-12-26T20:56:45.835Z,6.56
2022-12-26T20:59:12.963Z,6.68
2022-12-26T21:01:40.455Z,6.52
2022-12-26T21:04:18.599Z,6.57
2022-12-26T21:06:47.280Z,6.58
2022-12-26T21:09:17.021Z,6.55
2022-12-26T21:11:46.798Z,6.49
2022-12-26T21:14:18.818Z,6.42
2022-12-26T21:16:53.510Z,6.27
2022-12-26T21:19:23.556Z,6.25
2022-12-26T21:21:53.879Z,6.23
2022-12-26T21:24:29.470Z,6.20
2022-12-26T21:26:57.179Z,6.33
2022-12-26T21:29:30.678Z,6.23
2022-12-26T21:32:04.949Z,6.25
2022-12-26T21:34:35.214Z,6.20
2022-12-26T21:37:21.549Z,6.32
2022-12-26T21:39:49.674Z,6.24
2022-12-26T21:42:19.142Z,6.26
2022-12-26T21:44:48.552Z,6.10
2022-12-26T21:47:15.444Z,6.12
2022-12-26T21:49:42.318Z,6.09
2022-12-26T21:52:13.382Z,6.40
2022-12-26T21:55:18.598Z,6.18
2022-12-26T21:57:47.823Z,6.09
2022-12-26T22:00:15.360Z,6.17
2022-12-26T22:03:00.528Z,6.39
2022-12-26T22:05:29.941Z,6.29
2022-12-26T22:08:04.674Z,6.28
2022-12-26T22:10:55.040Z,6.03
2022-12-26T22:13:27.170Z,6.11
2022-12-26T22:16:07.634Z,6.02
2022-12-26T22:18:47.159Z,5.93
2022-12-26T22:21:22.374Z,6.01
2022-12-26T22:23:52.676Z,6.39
2022-12-26T22:26:23.441Z,6.49
2022-12-26T22:28:55.996Z,6.35
2022-12-26T22:31:27.370Z,6.49
2022-12-26T22:34:07.400Z,6.14
2022-12-26T22:36:40.333Z,6.26
2022-12-26T22:39:08.009Z,6.38
2022-12-26T22:41:35.076Z,6.22
2022-12-26T22:44:05.032Z,6.09
2022-12-26T22:46:34.907Z,6.02
2022-12-26T22:49:01.809Z,6.13
2022-12-26T22:51:28.885Z,5.89
2022-12-26T22:54:00.884Z,5.93
2022-12-26T22:56:29.043Z,6.06
2022-12-26T22:59:04.007Z,5.95
2022-12-26T23:01:31.335Z,5.95
2022-12-26T23:04:00.809Z,5.82
2022-12-26T23:06:34.985Z,6.07
2022-12-26T23:09:07.115Z,6.06
2022-12-26T23:11:36.456Z,5.87
2022-12-26T23:14:05.887Z,5.88
2022-12-26T23:16:51.111Z,5.95
2022-12-26T23:20:13.466Z,5.80
2022-12-26T23:22:43.173Z,5.99
2022-12-26T23:25:16.460Z,5.77
2022-12-26T23:28:02.182Z,5.75
2022-12-26T23:30:31.234Z,5.58
2022-12-26T23:33:01.274Z,5.78
2022-12-26T23:35:31.138Z,6.10
2022-12-26T23:37:58.247Z,5.97
2022-12-26T23:40:28.142Z,6.05
2022-12-26T23:42:57.393Z,6.00
2022-12-26T23:45:26.417Z,5.92
2022-12-26T23:47:55.747Z,5.82
2022-12-26T23:50:23.097Z,5.69
2022-12-26T23:52:52.473Z,5.71
2022-12-26T23:55:21.515Z,5.75
2022-12-26T23:57:50.883Z,5.74
